sensor_id;sensor_type;location;lat;lon;timestamp;temperature;humidity
51619;DHT22;38518;53.164;5.430;2023-10-19T00:00:36;7.80;99.90
51619;DHT22;38518;53.164;5.430;2023-10-19T00:03:05;7.80;99.90
51619;DHT22;38518;53.164;5.430;2023-10-19T00:05:33;8.10;99.90
51619;DHT22;38518;53.164;5.430;2023-10-19T00:08:00;7.80;99.90
51619;DHT22;38518;53.164;5.430;2023-10-19T00:10:31;7.80;99.90
51619;DHT22;38518;53.164;5.430;2023-10-19T00:13:08;7.80;99.90
51619;DHT22;38518;53.164;5.430;2023-10-19T00:15:35;7.80;99.90
51619;DHT22;38518;53.164;5.430;2023-10-19T00:18:06;7.70;99.90
51619;DHT22;38518;53.164;5.430;2023-10-19T00:20:48;7.70;99.90
51619;DHT22;38518;53.164;5.430;2023-10-19T00:23:25;7.70;99.90
51619;DHT22;38518;53.164;5.430;2023-10-19T00:25:58;7.70;99.90
51619;DHT22;38518;53.164;5.430;2023-10-19T00:28:26;7.70;99.90
51619;DHT22;38518;53.164;5.430;2023-10-19T00:30:53;7.70;99.90
51619;DHT22;38518;53.164;5.430;2023-10-19T00:33:25;7.70;99.90
51619;DHT22;38518;53.164;5.430;2023-10-19T00:35:54;7.70;99.90
51619;DHT22;38518;53.164;5.430;2023-10-19T00:38:33;7.70;99.90
51619;DHT22;38518;53.164;5.430;2023-10-19T00:41:03;8.00;99.90
51619;DHT22;38518;53.164;5.430;2023-10-19T00:43:33;7.70;99.90
51619;DHT22;38518;53.164;5.430;2023-10-19T00:46:02;7.70;99.90
51619;DHT22;38518;53.164;5.430;2023-10-19T00:48:29;7.70;99.90
51619;DHT22;38518;53.164;5.430;2023-10-19T00:50:58;7.70;99.90
51619;DHT22;38518;53.164;5.430;2023-10-19T00:53:38;8.30;99.90
51619;DHT22;38518;53.164;5.430;2023-10-19T00:56:08;7.70;99.90
51619;DHT22;38518;53.164;5.430;2023-10-19T00:58:36;7.80;99.90
51619;DHT22;38518;53.164;5.430;2023-10-19T01:01:05;7.70;99.90
51619;DHT22;38518;53.164;5.430;2023-10-19T01:03:32;7.80;99.90
51619;DHT22;38518;53.164;5.430;2023-10-19T01:06:03;7.90;99.90
51619;DHT22;38518;53.164;5.430;2023-10-19T01:08:38;7.70;99.90
51619;DHT22;38518;53.164;5.430;2023-10-19T01:11:10;7.80;99.90
51619;DHT22;38518;53.164;5.430;2023-10-19T01:13:38;7.70;99.90
51619;DHT22;38518;53.164;5.430;2023-10-19T01:16:04;7.70;99.90
51619;DHT22;38518;53.164;5.430;2023-10-19T01:18:30;7.70;99.90
51619;DHT22;38518;53.164;5.430;2023-10-19T01:20:59;7.70;99.90
51619;DHT22;38518;53.164;5.430;2023-10-19T01:23:30;7.70;99.90
51619;DHT22;38518;53.164;5.430;2023-10-19T01:25:58;7.70;99.90
51619;DHT22;38518;53.164;5.430;2023-10-19T01:28:32;7.80;99.90
51619;DHT22;38518;53.164;5.430;2023-10-19T01:31:07;7.70;99.90
51619;DHT22;38518;53.164;5.430;2023-10-19T01:33:33;7.80;99.90
51619;DHT22;38518;53.164;5.430;2023-10-19T01:36:01;7.80;99.90
51619;DHT22;38518;53.164;5.430;2023-10-19T01:38:40;7.80;99.90
51619;DHT22;38518;53.164;5.430;2023-10-19T01:41:07;7.80;99.90
51619;DHT22;38518;53.164;5.430;2023-10-19T01:43:43;7.80;99.90
51619;DHT22;38518;53.164;5.430;2023-10-19T01:46:09;7.80;99.90
51619;DHT22;38518;53.164;5.430;2023-10-19T01:48:42;7.80;99.90
51619;DHT22;38518;53.164;5.430;2023-10-19T01:51:11;7.80;99.90
51619;DHT22;38518;53.164;5.430;2023-10-19T01:53:37;7.80;99.90
51619;DHT22;38518;53.164;5.430;2023-10-19T01:56:14;7.80;99.90
51619;DHT22;38518;53.164;5.430;2023-10-19T01:58:41;7.80;99.90
51619;DHT22;38518;53.164;5.430;2023-10-19T02:01:09;7.80;99.90
51619;DHT22;38518;53.164;5.430;2023-10-19T02:03:35;7.80;99.90
51619;DHT22;38518;53.164;5.430;2023-10-19T02:06:01;7.90;99.90
51619;DHT22;38518;53.164;5.430;2023-10-19T02:08:51;7.90;99.90
51619;DHT22;38518;53.164;5.430;2023-10-19T02:11:24;7.90;99.90
51619;DHT22;38518;53.164;5.430;2023-10-19T02:13:53;7.90;99.90
51619;DHT22;38518;53.164;5.430;2023-10-19T02:16:26;7.90;99.90
51619;DHT22;38518;53.164;5.430;2023-10-19T02:18:55;7.90;99.90
51619;DHT22;38518;53.164;5.430;2023-10-19T02:21:21;7.90;99.90
51619;DHT22;38518;53.164;5.430;2023-10-19T02:23:56;8.00;99.90
51619;DHT22;38518;53.164;5.430;2023-10-19T02:26:23;8.00;99.90
51619;DHT22;38518;53.164;5.430;2023-10-19T02:28:52;8.00;99.90
51619;DHT22;38518;53.164;5.430;2023-10-19T02:31:19;8.00;99.90
51619;DHT22;38518;53.164;5.430;2023-10-19T02:33:47;8.00;99.90
51619;DHT22;38518;53.164;5.430;2023-10-19T02:36:29;8.00;99.90
51619;DHT22;38518;53.164;5.430;2023-10-19T02:41:25;8.00;99.90
51619;DHT22;38518;53.164;5.430;2023-10-19T02:43:55;8.00;99.90
51619;DHT22;38518;53.164;5.430;2023-10-19T02:46:31;8.00;99.90
51619;DHT22;38518;53.164;5.430;2023-10-19T02:49:02;8.10;99.90
51619;DHT22;38518;53.164;5.430;2023-10-19T02:51:29;8.10;99.90
51619;DHT22;38518;53.164;5.430;2023-10-19T02:53:56;8.10;99.90
51619;DHT22;38518;53.164;5.430;2023-10-19T02:56:22;8.10;99.90
51619;DHT22;38518;53.164;5.430;2023-10-19T02:58:52;8.10;99.90
51619;DHT22;38518;53.164;5.430;2023-10-19T03:01:20;8.10;99.90
51619;DHT22;38518;53.164;5.430;2023-10-19T03:03:55;8.10;99.90
51619;DHT22;38518;53.164;5.430;2023-10-19T03:06:29;8.40;99.90
51619;DHT22;38518;53.164;5.430;2023-10-19T03:09:05;8.20;99.90
51619;DHT22;38518;53.164;5.430;2023-10-19T03:11:43;8.20;99.90
51619;DHT22;38518;53.164;5.430;2023-10-19T03:14:12;8.20;99.90
51619;DHT22;38518;53.164;5.430;2023-10-19T03:16:39;8.20;99.90
51619;DHT22;38518;53.164;5.430;2023-10-19T03:19:08;8.20;99.90
51619;DHT22;38518;53.164;5.430;2023-10-19T03:21:34;8.20;99.90
51619;DHT22;38518;53.164;5.430;2023-10-19T03:24:08;8.20;99.90
51619;DHT22;38518;53.164;5.430;2023-10-19T03:27:08;8.30;99.90
51619;DHT22;38518;53.164;5.430;2023-10-19T03:29:47;8.30;99.90
51619;DHT22;38518;53.164;5.430;2023-10-19T03:32:18;8.30;99.90
51619;DHT22;38518;53.164;5.430;2023-10-19T03:34:48;8.30;99.90
51619;DHT22;38518;53.164;5.430;2023-10-19T03:37:15;8.30;99.90
51619;DHT22;38518;53.164;5.430;2023-10-19T03:39:42;8.40;99.90
51619;DHT22;38518;53.164;5.430;2023-10-19T03:42:11;8.40;99.90
51619;DHT22;38518;53.164;5.430;2023-10-19T03:44:40;8.40;99.90
51619;DHT22;38518;53.164;5.430;2023-10-19T03:47:05;8.40;99.90
51619;DHT22;38518;53.164;5.430;2023-10-19T03:49:37;8.40;99.90
51619;DHT22;38518;53.164;5.430;2023-10-19T03:52:05;8.40;99.90
51619;DHT22;38518;53.164;5.430;2023-10-19T03:54:37;8.40;99.90
51619;DHT22;38518;53.164;5.430;2023-10-19T03:57:06;8.40;99.90
51619;DHT22;38518;53.164;5.430;2023-10-19T03:59:37;8.40;99.90
51619;DHT22;38518;53.164;5.430;2023-10-19T04:02:03;8.50;99.90
51619;DHT22;38518;53.164;5.430;2023-10-19T04:04:38;8.40;99.90
51619;DHT22;38518;53.164;5.430;2023-10-19T04:07:09;8.50;99.90
51619;DHT22;38518;53.164;5.430;2023-10-19T04:09:56;8.50;99.90
51619;DHT22;38518;53.164;5.430;2023-10-19T04:12:26;8.50;99.90
51619;DHT22;38518;53.164;5.430;2023-10-19T04:14:54;8.50;99.90
51619;DHT22;38518;53.164;5.430;2023-10-19T04:17:21;8.50;99.90
51619;DHT22;38518;53.164;5.430;2023-10-19T04:19:48;8.60;99.90
51619;DHT22;38518;53.164;5.430;2023-10-19T04:22:14;8.60;99.90
51619;DHT22;38518;53.164;5.430;2023-10-19T04:24:52;8.60;99.90
51619;DHT22;38518;53.164;5.430;2023-10-19T04:27:18;8.60;99.90
51619;DHT22;38518;53.164;5.430;2023-10-19T04:29:48;8.60;99.90
51619;DHT22;38518;53.164;5.430;2023-10-19T04:32:15;8.60;99.90
51619;DHT22;38518;53.164;5.430;2023-10-19T04:34:45;8.60;99.90
51619;DHT22;38518;53.164;5.430;2023-10-19T04:37:11;8.60;99.90
51619;DHT22;38518;53.164;5.430;2023-10-19T04:39:38;8.70;99.90
51619;DHT22;38518;53.164;5.430;2023-10-19T04:42:03;8.60;99.90
51619;DHT22;38518;53.164;5.430;2023-10-19T04:44:29;8.70;99.90
51619;DHT22;38518;53.164;5.430;2023-10-19T04:46:56;8.70;99.90
51619;DHT22;38518;53.164;5.430;2023-10-19T04:49:22;8.70;99.90
51619;DHT22;38518;53.164;5.430;2023-10-19T04:51:48;8.80;99.90
51619;DHT22;38518;53.164;5.430;2023-10-19T04:54:14;8.80;99.90
51619;DHT22;38518;53.164;5.430;2023-10-19T04:56:39;8.80;99.90
51619;DHT22;38518;53.164;5.430;2023-10-19T04:59:05;8.80;99.90
51619;DHT22;38518;53.164;5.430;2023-10-19T05:01:31;8.90;99.90
51619;DHT22;38518;53.164;5.430;2023-10-19T05:03:59;8.80;99.90
51619;DHT22;38518;53.164;5.430;2023-10-19T05:06:25;8.80;99.90
51619;DHT22;38518;53.164;5.430;2023-10-19T05:08:51;8.80;99.90
51619;DHT22;38518;53.164;5.430;2023-10-19T05:11:17;8.80;99.90
51619;DHT22;38518;53.164;5.430;2023-10-19T05:13:43;8.80;99.90
51619;DHT22;38518;53.164;5.430;2023-10-19T05:16:09;8.90;99.90
51619;DHT22;38518;53.164;5.430;2023-10-19T05:18:35;8.90;99.90
51619;DHT22;38518;53.164;5.430;2023-10-19T05:21:01;8.90;99.90
51619;DHT22;38518;53.164;5.430;2023-10-19T05:23:27;8.90;99.90
51619;DHT22;38518;53.164;5.430;2023-10-19T05:26:04;8.90;99.90
51619;DHT22;38518;53.164;5.430;2023-10-19T05:28:30;8.90;99.90
51619;DHT22;38518;53.164;5.430;2023-10-19T05:30:56;8.90;99.90
51619;DHT22;38518;53.164;5.430;2023-10-19T05:33:22;9.00;99.90
51619;DHT22;38518;53.164;5.430;2023-10-19T05:35:49;9.00;99.90
51619;DHT22;38518;53.164;5.430;2023-10-19T05:38:18;9.00;99.90
51619;DHT22;38518;53.164;5.430;2023-10-19T05:40:45;9.00;99.90
51619;DHT22;38518;53.164;5.430;2023-10-19T05:43:11;9.00;99.90
51619;DHT22;38518;53.164;5.430;2023-10-19T05:45:40;9.00;99.90
51619;DHT22;38518;53.164;5.430;2023-10-19T05:48:06;9.10;99.90
51619;DHT22;38518;53.164;5.430;2023-10-19T05:50:35;9.10;99.90
51619;DHT22;38518;53.164;5.430;2023-10-19T05:53:02;9.10;99.90
51619;DHT22;38518;53.164;5.430;2023-10-19T05:55:28;9.10;99.90
51619;DHT22;38518;53.164;5.430;2023-10-19T05:57:54;9.10;99.90
51619;DHT22;38518;53.164;5.430;2023-10-19T06:00:21;9.20;99.90
51619;DHT22;38518;53.164;5.430;2023-10-19T06:02:51;9.20;99.90
51619;DHT22;38518;53.164;5.430;2023-10-19T06:05:18;9.20;99.90
51619;DHT22;38518;53.164;5.430;2023-10-19T06:07:45;9.20;99.90
51619;DHT22;38518;53.164;5.430;2023-10-19T06:10:13;9.20;99.90
51619;DHT22;38518;53.164;5.430;2023-10-19T06:12:47;9.30;99.90
51619;DHT22;38518;53.164;5.430;2023-10-19T06:15:14;9.30;99.90
51619;DHT22;38518;53.164;5.430;2023-10-19T06:17:41;9.30;99.90
51619;DHT22;38518;53.164;5.430;2023-10-19T06:20:08;9.30;99.90
51619;DHT22;38518;53.164;5.430;2023-10-19T06:22:46;9.30;99.90
51619;DHT22;38518;53.164;5.430;2023-10-19T06:25:16;9.30;99.90
51619;DHT22;38518;53.164;5.430;2023-10-19T06:27:43;9.40;99.90
51619;DHT22;38518;53.164;5.430;2023-10-19T06:30:09;9.40;99.90
51619;DHT22;38518;53.164;5.430;2023-10-19T06:32:36;9.40;99.90
51619;DHT22;38518;53.164;5.430;2023-10-19T06:35:03;9.40;99.90
51619;DHT22;38518;53.164;5.430;2023-10-19T06:37:29;9.40;99.90
51619;DHT22;38518;53.164;5.430;2023-10-19T06:39:54;9.40;99.90
51619;DHT22;38518;53.164;5.430;2023-10-19T06:42:20;9.40;99.90
51619;DHT22;38518;53.164;5.430;2023-10-19T06:44:46;9.50;99.90
51619;DHT22;38518;53.164;5.430;2023-10-19T06:47:12;9.50;99.90
51619;DHT22;38518;53.164;5.430;2023-10-19T06:49:39;9.50;99.90
51619;DHT22;38518;53.164;5.430;2023-10-19T06:52:05;9.50;99.90
51619;DHT22;38518;53.164;5.430;2023-10-19T06:54:31;9.50;99.90
51619;DHT22;38518;53.164;5.430;2023-10-19T06:56:57;9.50;99.90
51619;DHT22;38518;53.164;5.430;2023-10-19T06:59:23;9.50;99.90
51619;DHT22;38518;53.164;5.430;2023-10-19T07:01:49;9.50;99.90
51619;DHT22;38518;53.164;5.430;2023-10-19T07:04:15;9.60;99.90
51619;DHT22;38518;53.164;5.430;2023-10-19T07:06:41;9.50;99.90
51619;DHT22;38518;53.164;5.430;2023-10-19T07:09:07;9.60;99.90
51619;DHT22;38518;53.164;5.430;2023-10-19T07:11:36;9.60;99.90
51619;DHT22;38518;53.164;5.430;2023-10-19T07:14:01;9.60;99.90
51619;DHT22;38518;53.164;5.430;2023-10-19T07:16:28;9.60;99.90
51619;DHT22;38518;53.164;5.430;2023-10-19T07:18:55;9.60;99.90
51619;DHT22;38518;53.164;5.430;2023-10-19T07:21:23;9.70;99.90
51619;DHT22;38518;53.164;5.430;2023-10-19T07:23:48;9.70;99.90
51619;DHT22;38518;53.164;5.430;2023-10-19T07:26:17;9.70;99.90
51619;DHT22;38518;53.164;5.430;2023-10-19T07:28:45;9.70;99.90
51619;DHT22;38518;53.164;5.430;2023-10-19T07:31:10;9.80;99.90
51619;DHT22;38518;53.164;5.430;2023-10-19T07:33:41;9.70;99.90
51619;DHT22;38518;53.164;5.430;2023-10-19T07:36:14;9.70;99.90
51619;DHT22;38518;53.164;5.430;2023-10-19T07:38:40;9.80;99.90
51619;DHT22;38518;53.164;5.430;2023-10-19T07:41:08;9.40;99.90
51619;DHT22;38518;53.164;5.430;2023-10-19T07:43:35;9.80;99.90
51619;DHT22;38518;53.164;5.430;2023-10-19T07:46:01;9.30;99.90
51619;DHT22;38518;53.164;5.430;2023-10-19T07:48:27;9.80;99.90
51619;DHT22;38518;53.164;5.430;2023-10-19T07:50:52;9.80;99.90
51619;DHT22;38518;53.164;5.430;2023-10-19T07:53:22;10.00;99.90
51619;DHT22;38518;53.164;5.430;2023-10-19T07:55:50;9.90;99.90
51619;DHT22;38518;53.164;5.430;2023-10-19T07:58:16;9.90;99.90
51619;DHT22;38518;53.164;5.430;2023-10-19T08:00:41;10.00;99.90
51619;DHT22;38518;53.164;5.430;2023-10-19T08:03:08;10.00;99.90
51619;DHT22;38518;53.164;5.430;2023-10-19T08:05:36;10.00;99.90
51619;DHT22;38518;53.164;5.430;2023-10-19T08:08:02;10.10;99.90
51619;DHT22;38518;53.164;5.430;2023-10-19T08:10:31;10.10;99.90
51619;DHT22;38518;53.164;5.430;2023-10-19T08:12:57;10.10;99.90
51619;DHT22;38518;53.164;5.430;2023-10-19T08:15:24;10.10;99.90
51619;DHT22;38518;53.164;5.430;2023-10-19T08:17:51;10.10;99.90
51619;DHT22;38518;53.164;5.430;2023-10-19T08:20:19;10.20;99.90
51619;DHT22;38518;53.164;5.430;2023-10-19T08:22:56;10.20;99.90
51619;DHT22;38518;53.164;5.430;2023-10-19T08:25:23;10.20;99.90
51619;DHT22;38518;53.164;5.430;2023-10-19T08:27:49;10.20;99.90
51619;DHT22;38518;53.164;5.430;2023-10-19T08:30:25;10.20;99.90
51619;DHT22;38518;53.164;5.430;2023-10-19T08:32:52;9.90;99.90
51619;DHT22;38518;53.164;5.430;2023-10-19T08:35:20;10.30;99.90
51619;DHT22;38518;53.164;5.430;2023-10-19T08:37:55;10.30;99.90
51619;DHT22;38518;53.164;5.430;2023-10-19T08:40:25;10.40;99.90
51619;DHT22;38518;53.164;5.430;2023-10-19T08:42:52;10.40;99.90
51619;DHT22;38518;53.164;5.430;2023-10-19T08:45:19;10.40;99.90
51619;DHT22;38518;53.164;5.430;2023-10-19T08:47:54;10.40;99.90
51619;DHT22;38518;53.164;5.430;2023-10-19T08:50:28;10.40;99.90
51619;DHT22;38518;53.164;5.430;2023-10-19T08:52:58;10.50;99.90
51619;DHT22;38518;53.164;5.430;2023-10-19T08:55:25;10.50;99.90
51619;DHT22;38518;53.164;5.430;2023-10-19T08:57:51;10.50;99.90
51619;DHT22;38518;53.164;5.430;2023-10-19T09:00:19;10.60;99.90
51619;DHT22;38518;53.164;5.430;2023-10-19T09:02:48;10.70;99.90
51619;DHT22;38518;53.164;5.430;2023-10-19T09:05:14;10.70;99.90
51619;DHT22;38518;53.164;5.430;2023-10-19T09:07:54;10.70;99.90
51619;DHT22;38518;53.164;5.430;2023-10-19T09:10:27;10.70;99.90
51619;DHT22;38518;53.164;5.430;2023-10-19T09:13:06;10.70;99.90
51619;DHT22;38518;53.164;5.430;2023-10-19T09:15:36;10.70;99.90
51619;DHT22;38518;53.164;5.430;2023-10-19T09:18:25;10.70;99.90
51619;DHT22;38518;53.164;5.430;2023-10-19T09:20:57;10.80;99.90
51619;DHT22;38518;53.164;5.430;2023-10-19T09:23:34;10.80;99.90
51619;DHT22;38518;53.164;5.430;2023-10-19T09:26:01;10.80;99.90
51619;DHT22;38518;53.164;5.430;2023-10-19T09:28:37;10.80;99.90
51619;DHT22;38518;53.164;5.430;2023-10-19T09:31:04;10.90;99.90
51619;DHT22;38518;53.164;5.430;2023-10-19T09:33:32;10.90;99.90
51619;DHT22;38518;53.164;5.430;2023-10-19T09:36:01;11.00;99.90
51619;DHT22;38518;53.164;5.430;2023-10-19T09:38:27;11.10;99.90
51619;DHT22;38518;53.164;5.430;2023-10-19T09:40:54;11.10;99.90
51619;DHT22;38518;53.164;5.430;2023-10-19T09:43:46;11.20;99.90
51619;DHT22;38518;53.164;5.430;2023-10-19T09:46:27;11.30;99.90
51619;DHT22;38518;53.164;5.430;2023-10-19T09:49:07;11.30;99.90
51619;DHT22;38518;53.164;5.430;2023-10-19T09:51:56;11.40;99.90
51619;DHT22;38518;53.164;5.430;2023-10-19T09:55:03;11.40;99.90
51619;DHT22;38518;53.164;5.430;2023-10-19T09:57:36;11.50;99.90
51619;DHT22;38518;53.164;5.430;2023-10-19T10:00:04;11.60;99.90
51619;DHT22;38518;53.164;5.430;2023-10-19T10:02:42;11.60;99.90
51619;DHT22;38518;53.164;5.430;2023-10-19T10:10:43;11.80;99.90
51619;DHT22;38518;53.164;5.430;2023-10-19T10:15:53;11.90;99.90
51619;DHT22;38518;53.164;5.430;2023-10-19T10:18:32;11.90;99.90
51619;DHT22;38518;53.164;5.430;2023-10-19T10:26:14;12.00;99.90
51619;DHT22;38518;53.164;5.430;2023-10-19T10:28:41;12.00;99.90
51619;DHT22;38518;53.164;5.430;2023-10-19T10:33:45;12.10;99.90
51619;DHT22;38518;53.164;5.430;2023-10-19T10:36:12;12.20;99.90
51619;DHT22;38518;53.164;5.430;2023-10-19T10:38:38;12.20;99.90
51619;DHT22;38518;53.164;5.430;2023-10-19T10:41:05;12.20;99.90
51619;DHT22;38518;53.164;5.430;2023-10-19T10:43:51;12.20;99.90
51619;DHT22;38518;53.164;5.430;2023-10-19T10:46:19;12.20;99.90
51619;DHT22;38518;53.164;5.430;2023-10-19T10:48:45;12.20;99.90
51619;DHT22;38518;53.164;5.430;2023-10-19T10:51:18;12.30;99.90
51619;DHT22;38518;53.164;5.430;2023-10-19T10:53:47;12.30;99.90
51619;DHT22;38518;53.164;5.430;2023-10-19T10:56:13;12.40;99.90
51619;DHT22;38518;53.164;5.430;2023-10-19T10:58:38;12.40;99.90
51619;DHT22;38518;53.164;5.430;2023-10-19T11:01:05;12.50;99.90
51619;DHT22;38518;53.164;5.430;2023-10-19T11:03:31;12.60;99.90
51619;DHT22;38518;53.164;5.430;2023-10-19T11:06:07;12.70;99.90
51619;DHT22;38518;53.164;5.430;2023-10-19T11:08:36;12.80;99.90
51619;DHT22;38518;53.164;5.430;2023-10-19T11:11:09;13.10;99.90
51619;DHT22;38518;53.164;5.430;2023-10-19T11:13:39;13.30;99.90
51619;DHT22;38518;53.164;5.430;2023-10-19T11:16:08;13.40;99.90
51619;DHT22;38518;53.164;5.430;2023-10-19T11:18:41;13.50;99.90
51619;DHT22;38518;53.164;5.430;2023-10-19T11:21:13;13.50;99.90
51619;DHT22;38518;53.164;5.430;2023-10-19T11:26:10;13.50;99.90
51619;DHT22;38518;53.164;5.430;2023-10-19T11:28:38;13.40;99.90
51619;DHT22;38518;53.164;5.430;2023-10-19T11:31:21;13.40;99.90
51619;DHT22;38518;53.164;5.430;2023-10-19T11:33:52;13.40;99.90
51619;DHT22;38518;53.164;5.430;2023-10-19T11:36:19;13.40;99.90
51619;DHT22;38518;53.164;5.430;2023-10-19T11:38:47;13.60;99.90
51619;DHT22;38518;53.164;5.430;2023-10-19T11:41:14;13.90;99.90
51619;DHT22;38518;53.164;5.430;2023-10-19T11:43:42;13.70;99.90
51619;DHT22;38518;53.164;5.430;2023-10-19T11:46:09;14.00;99.90
51619;DHT22;38518;53.164;5.430;2023-10-19T11:48:36;13.90;99.90
51619;DHT22;38518;53.164;5.430;2023-10-19T11:51:03;13.90;99.90
51619;DHT22;38518;53.164;5.430;2023-10-19T11:53:36;13.90;99.90
51619;DHT22;38518;53.164;5.430;2023-10-19T11:56:05;13.80;99.90
51619;DHT22;38518;53.164;5.430;2023-10-19T11:58:32;13.70;99.90
51619;DHT22;38518;53.164;5.430;2023-10-19T12:01:00;13.70;99.90
51619;DHT22;38518;53.164;5.430;2023-10-19T12:03:26;13.40;99.90
51619;DHT22;38518;53.164;5.430;2023-10-19T12:05:52;13.50;99.90
51619;DHT22;38518;53.164;5.430;2023-10-19T12:08:19;13.50;99.90
51619;DHT22;38518;53.164;5.430;2023-10-19T12:10:44;13.40;99.90
51619;DHT22;38518;53.164;5.430;2023-10-19T12:13:10;13.40;99.90
51619;DHT22;38518;53.164;5.430;2023-10-19T12:15:36;13.30;99.90
51619;DHT22;38518;53.164;5.430;2023-10-19T12:18:02;13.30;99.90
51619;DHT22;38518;53.164;5.430;2023-10-19T12:20:29;13.20;99.90
51619;DHT22;38518;53.164;5.430;2023-10-19T12:22:58;13.20;99.90
51619;DHT22;38518;53.164;5.430;2023-10-19T12:25:25;13.20;99.90
51619;DHT22;38518;53.164;5.430;2023-10-19T12:27:58;13.20;99.90
51619;DHT22;38518;53.164;5.430;2023-10-19T12:30:27;13.10;99.90
51619;DHT22;38518;53.164;5.430;2023-10-19T12:33:00;13.10;99.90
51619;DHT22;38518;53.164;5.430;2023-10-19T12:35:26;13.00;99.90
51619;DHT22;38518;53.164;5.430;2023-10-19T12:38:08;13.00;99.90
51619;DHT22;38518;53.164;5.430;2023-10-19T12:40:41;13.00;99.90
51619;DHT22;38518;53.164;5.430;2023-10-19T12:43:08;12.90;99.90
51619;DHT22;38518;53.164;5.430;2023-10-19T12:45:36;12.90;99.90
51619;DHT22;38518;53.164;5.430;2023-10-19T12:48:05;12.90;99.90
51619;DHT22;38518;53.164;5.430;2023-10-19T12:50:31;12.80;99.90
51619;DHT22;38518;53.164;5.430;2023-10-19T12:52:57;12.70;99.90
51619;DHT22;38518;53.164;5.430;2023-10-19T12:55:23;12.70;99.90
51619;DHT22;38518;53.164;5.430;2023-10-19T12:57:53;12.60;99.90
51619;DHT22;38518;53.164;5.430;2023-10-19T13:00:18;12.60;99.90
51619;DHT22;38518;53.164;5.430;2023-10-19T13:03:03;12.50;99.90
51619;DHT22;38518;53.164;5.430;2023-10-19T13:05:37;12.50;99.90
51619;DHT22;38518;53.164;5.430;2023-10-19T13:08:08;12.40;99.90
51619;DHT22;38518;53.164;5.430;2023-10-19T13:10:35;12.40;99.90
51619;DHT22;38518;53.164;5.430;2023-10-19T13:13:05;12.40;99.90
51619;DHT22;38518;53.164;5.430;2023-10-19T13:15:35;12.40;99.90
51619;DHT22;38518;53.164;5.430;2023-10-19T13:18:02;12.40;99.90
51619;DHT22;38518;53.164;5.430;2023-10-19T13:20:29;12.30;99.90
51619;DHT22;38518;53.164;5.430;2023-10-19T13:23:08;12.30;99.90
51619;DHT22;38518;53.164;5.430;2023-10-19T13:25:37;12.30;99.90
51619;DHT22;38518;53.164;5.430;2023-10-19T13:28:16;12.20;99.90
51619;DHT22;38518;53.164;5.430;2023-10-19T13:30:46;12.20;99.90
51619;DHT22;38518;53.164;5.430;2023-10-19T13:33:16;12.10;99.90
51619;DHT22;38518;53.164;5.430;2023-10-19T13:35:44;12.10;99.90
51619;DHT22;38518;53.164;5.430;2023-10-19T13:38:11;12.00;99.90
51619;DHT22;38518;53.164;5.430;2023-10-19T13:40:39;12.00;99.90
51619;DHT22;38518;53.164;5.430;2023-10-19T13:43:06;12.00;99.90
51619;DHT22;38518;53.164;5.430;2023-10-19T13:45:34;11.90;99.90
51619;DHT22;38518;53.164;5.430;2023-10-19T13:48:04;11.80;99.90
51619;DHT22;38518;53.164;5.430;2023-10-19T13:50:31;11.80;99.90
51619;DHT22;38518;53.164;5.430;2023-10-19T13:52:57;11.70;99.90
51619;DHT22;38518;53.164;5.430;2023-10-19T13:55:24;11.70;99.90
51619;DHT22;38518;53.164;5.430;2023-10-19T13:57:50;11.70;99.90
51619;DHT22;38518;53.164;5.430;2023-10-19T14:00:17;11.60;99.90
51619;DHT22;38518;53.164;5.430;2023-10-19T14:02:51;11.60;99.90
51619;DHT22;38518;53.164;5.430;2023-10-19T14:05:18;11.60;99.90
51619;DHT22;38518;53.164;5.430;2023-10-19T14:07:50;11.60;99.90
51619;DHT22;38518;53.164;5.430;2023-10-19T14:10:17;11.60;99.90
51619;DHT22;38518;53.164;5.430;2023-10-19T14:12:46;11.50;99.90
51619;DHT22;38518;53.164;5.430;2023-10-19T14:15:16;11.50;99.90
51619;DHT22;38518;53.164;5.430;2023-10-19T14:17:43;12.20;99.90
51619;DHT22;38518;53.164;5.430;2023-10-19T14:20:14;11.50;99.90
51619;DHT22;38518;53.164;5.430;2023-10-19T14:22:46;11.40;99.90
51619;DHT22;38518;53.164;5.430;2023-10-19T14:25:14;11.40;99.90
51619;DHT22;38518;53.164;5.430;2023-10-19T14:27:41;11.30;99.90
51619;DHT22;38518;53.164;5.430;2023-10-19T14:30:11;11.30;99.90
51619;DHT22;38518;53.164;5.430;2023-10-19T14:32:45;11.30;99.90
51619;DHT22;38518;53.164;5.430;2023-10-19T14:35:16;11.30;99.90
51619;DHT22;38518;53.164;5.430;2023-10-19T14:37:44;11.20;99.90
51619;DHT22;38518;53.164;5.430;2023-10-19T14:40:11;11.20;99.90
51619;DHT22;38518;53.164;5.430;2023-10-19T14:42:41;11.20;99.90
51619;DHT22;38518;53.164;5.430;2023-10-19T14:45:12;11.20;99.90
51619;DHT22;38518;53.164;5.430;2023-10-19T14:47:58;11.10;99.90
51619;DHT22;38518;53.164;5.430;2023-10-19T14:50:25;11.10;99.90
51619;DHT22;38518;53.164;5.430;2023-10-19T14:52:53;11.10;99.90
51619;DHT22;38518;53.164;5.430;2023-10-19T14:55:22;11.10;99.90
51619;DHT22;38518;53.164;5.430;2023-10-19T14:57:52;11.10;99.90
51619;DHT22;38518;53.164;5.430;2023-10-19T15:00:19;11.10;99.90
51619;DHT22;38518;53.164;5.430;2023-10-19T15:02:55;11.10;99.90
51619;DHT22;38518;53.164;5.430;2023-10-19T15:05:26;11.10;99.90
51619;DHT22;38518;53.164;5.430;2023-10-19T15:07:53;11.00;99.90
51619;DHT22;38518;53.164;5.430;2023-10-19T15:10:27;11.00;99.90
51619;DHT22;38518;53.164;5.430;2023-10-19T15:12:56;11.00;99.90
51619;DHT22;38518;53.164;5.430;2023-10-19T15:15:24;10.90;99.90
51619;DHT22;38518;53.164;5.430;2023-10-19T15:17:50;10.90;99.90
51619;DHT22;38518;53.164;5.430;2023-10-19T15:20:20;10.80;99.90
51619;DHT22;38518;53.164;5.430;2023-10-19T15:22:47;10.80;99.90
51619;DHT22;38518;53.164;5.430;2023-10-19T15:25:14;10.70;99.90
51619;DHT22;38518;53.164;5.430;2023-10-19T15:27:43;10.70;99.90
51619;DHT22;38518;53.164;5.430;2023-10-19T15:30:11;10.70;99.90
51619;DHT22;38518;53.164;5.430;2023-10-19T15:32:37;10.70;99.90
51619;DHT22;38518;53.164;5.430;2023-10-19T15:35:04;10.70;99.90
51619;DHT22;38518;53.164;5.430;2023-10-19T15:37:30;10.70;99.90
51619;DHT22;38518;53.164;5.430;2023-10-19T15:39:56;10.70;99.90
51619;DHT22;38518;53.164;5.430;2023-10-19T15:42:22;10.60;99.90
51619;DHT22;38518;53.164;5.430;2023-10-19T15:44:49;10.60;99.90
51619;DHT22;38518;53.164;5.430;2023-10-19T15:47:16;10.60;99.90
51619;DHT22;38518;53.164;5.430;2023-10-19T15:49:51;10.50;99.90
51619;DHT22;38518;53.164;5.430;2023-10-19T15:52:22;9.60;99.90
51619;DHT22;38518;53.164;5.430;2023-10-19T15:54:49;10.50;99.90
51619;DHT22;38518;53.164;5.430;2023-10-19T15:57:19;10.50;99.90
51619;DHT22;38518;53.164;5.430;2023-10-19T15:59:45;10.40;99.90
51619;DHT22;38518;53.164;5.430;2023-10-19T16:02:11;10.40;99.90
51619;DHT22;38518;53.164;5.430;2023-10-19T16:04:39;10.40;99.90
51619;DHT22;38518;53.164;5.430;2023-10-19T16:07:08;10.30;99.90
51619;DHT22;38518;53.164;5.430;2023-10-19T16:09:34;10.30;99.90
51619;DHT22;38518;53.164;5.430;2023-10-19T16:11:59;10.30;99.90